sensor_id;sensor_type;location;lat;lon;timestamp;pressure;altitude;pressure_sealevel;temperature;humidity
68508;BME280;55510;49.560;19.090;2023-02-03T00:02:11;96989.53;;;-2.62;86.92
68508;BME280;55510;49.560;19.090;2023-02-03T00:05:11;96996.22;;;-2.59;86.68
68508;BME280;55510;49.560;19.090;2023-02-03T00:08:12;97007.47;;;-2.59;85.73
68508;BME280;55510;49.560;19.090;2023-02-03T00:11:14;97009.63;;;-2.54;85.71
68508;BME280;55510;49.560;19.090;2023-02-03T00:14:14;97017.03;;;-2.50;86.48
68508;BME280;55510;49.560;19.090;2023-02-03T00:17:15;97025.34;;;-2.46;86.51
68508;BME280;55510;49.560;19.090;2023-02-03T00:20:15;97033.03;;;-2.44;86.33
68508;BME280;55510;49.560;19.090;2023-02-03T00:23:16;97038.78;;;-2.41;85.87
68508;BME280;55510;49.560;19.090;2023-02-03T00:26:17;97047.28;;;-2.39;86.84
68508;BME280;55510;49.560;19.090;2023-02-03T00:29:18;97042.59;;;-2.35;86.44
68508;BME280;55510;49.560;19.090;2023-02-03T00:32:20;97041.78;;;-2.36;85.78
68508;BME280;55510;49.560;19.090;2023-02-03T00:35:21;97039.84;;;-2.34;85.74
68508;BME280;55510;49.560;19.090;2023-02-03T00:38:26;97037.38;;;-2.35;84.98
68508;BME280;55510;49.560;19.090;2023-02-03T00:41:28;97034.09;;;-2.37;84.27
68508;BME280;55510;49.560;19.090;2023-02-03T00:44:31;97035.91;;;-2.38;84.57
68508;BME280;55510;49.560;19.090;2023-02-03T00:47:32;97042.22;;;-2.40;84.99
68508;BME280;55510;49.560;19.090;2023-02-03T00:50:39;97054.69;;;-2.44;84.17
68508;BME280;55510;49.560;19.090;2023-02-03T00:53:40;97054.19;;;-2.48;83.66
68508;BME280;55510;49.560;19.090;2023-02-03T00:56:40;97059.16;;;-2.54;83.29
68508;BME280;55510;49.560;19.090;2023-02-03T00:59:41;97058.34;;;-2.55;83.36
68508;BME280;55510;49.560;19.090;2023-02-03T01:02:42;97066.97;;;-2.54;83.23
68508;BME280;55510;49.560;19.090;2023-02-03T01:05:43;97060.84;;;-2.63;82.78
68508;BME280;55510;49.560;19.090;2023-02-03T01:08:44;97060.97;;;-2.65;82.83
68508;BME280;55510;49.560;19.090;2023-02-03T01:11:45;97066.31;;;-2.66;83.36
68508;BME280;55510;49.560;19.090;2023-02-03T01:14:45;97057.69;;;-2.67;82.86
68508;BME280;55510;49.560;19.090;2023-02-03T01:17:46;97055.50;;;-2.71;83.61
68508;BME280;55510;49.560;19.090;2023-02-03T01:20:47;97054.53;;;-2.70;83.84
68508;BME280;55510;49.560;19.090;2023-02-03T01:23:47;97057.56;;;-2.65;84.37
68508;BME280;55510;49.560;19.090;2023-02-03T01:26:48;97050.25;;;-2.62;84.46
68508;BME280;55510;49.560;19.090;2023-02-03T01:29:49;97048.19;;;-2.58;84.49
68508;BME280;55510;49.560;19.090;2023-02-03T01:32:49;97039.94;;;-2.53;84.58
68508;BME280;55510;49.560;19.090;2023-02-03T01:35:50;97038.84;;;-2.51;84.41
68508;BME280;55510;49.560;19.090;2023-02-03T01:38:51;97038.53;;;-2.48;84.69
68508;BME280;55510;49.560;19.090;2023-02-03T01:41:54;97036.31;;;-2.42;85.42
68508;BME280;55510;49.560;19.090;2023-02-03T01:44:54;97026.56;;;-2.40;85.88
68508;BME280;55510;49.560;19.090;2023-02-03T01:47:57;97032.47;;;-2.38;85.25
68508;BME280;55510;49.560;19.090;2023-02-03T01:51:01;97033.28;;;-2.38;86.18
68508;BME280;55510;49.560;19.090;2023-02-03T01:54:03;97030.53;;;-2.36;86.38
68508;BME280;55510;49.560;19.090;2023-02-03T01:57:12;97028.38;;;-2.41;86.16
68508;BME280;55510;49.560;19.090;2023-02-03T02:00:14;97017.09;;;-2.41;86.48
68508;BME280;55510;49.560;19.090;2023-02-03T02:03:16;97013.53;;;-2.40;87.24
68508;BME280;55510;49.560;19.090;2023-02-03T02:06:19;97021.50;;;-2.42;86.50
68508;BME280;55510;49.560;19.090;2023-02-03T02:09:19;97015.75;;;-2.45;85.96
68508;BME280;55510;49.560;19.090;2023-02-03T02:12:20;97010.53;;;-2.45;85.50
68508;BME280;55510;49.560;19.090;2023-02-03T02:15:22;97017.41;;;-2.44;83.91
68508;BME280;55510;49.560;19.090;2023-02-03T02:28:55;97005.44;;;-2.65;82.17
68508;BME280;55510;49.560;19.090;2023-02-03T02:32:08;96998.47;;;-2.74;80.94
68508;BME280;55510;49.560;19.090;2023-02-03T02:45:28;96999.38;;;-2.94;81.05
68508;BME280;55510;49.560;19.090;2023-02-03T02:48:39;96994.91;;;-3.01;80.60
68508;BME280;55510;49.560;19.090;2023-02-03T02:51:45;97002.41;;;-2.98;81.19
68508;BME280;55510;49.560;19.090;2023-02-03T02:54:51;96999.13;;;-3.00;80.96
68508;BME280;55510;49.560;19.090;2023-02-03T02:57:54;96997.06;;;-2.97;81.47
68508;BME280;55510;49.560;19.090;2023-02-03T03:00:56;96987.84;;;-2.91;81.49
68508;BME280;55510;49.560;19.090;2023-02-03T03:04:00;96982.25;;;-2.96;80.69
68508;BME280;55510;49.560;19.090;2023-02-03T03:07:09;96970.72;;;-2.94;80.76
68508;BME280;55510;49.560;19.090;2023-02-03T03:10:15;96971.75;;;-3.04;80.22
68508;BME280;55510;49.560;19.090;2023-02-03T03:13:22;96967.72;;;-2.99;80.66
68508;BME280;55510;49.560;19.090;2023-02-03T03:16:26;96972.94;;;-2.99;80.71
68508;BME280;55510;49.560;19.090;2023-02-03T03:19:33;96977.47;;;-3.01;80.83
68508;BME280;55510;49.560;19.090;2023-02-03T03:22:43;96976.00;;;-3.03;81.89
68508;BME280;55510;49.560;19.090;2023-02-03T03:25:48;96969.81;;;-3.02;82.94
68508;BME280;55510;49.560;19.090;2023-02-03T03:29:03;96971.19;;;-3.08;82.74
68508;BME280;55510;49.560;19.090;2023-02-03T03:32:06;96980.94;;;-3.10;83.01
68508;BME280;55510;49.560;19.090;2023-02-03T03:35:07;96980.53;;;-3.15;83.23
68508;BME280;55510;49.560;19.090;2023-02-03T03:38:22;96995.50;;;-3.27;83.10
68508;BME280;55510;49.560;19.090;2023-02-03T03:45:03;96980.28;;;-3.32;83.15
68508;BME280;55510;49.560;19.090;2023-02-03T03:51:35;96998.84;;;-3.45;83.50
68508;BME280;55510;49.560;19.090;2023-02-03T03:54:40;97001.44;;;-3.45;84.17
68508;BME280;55510;49.560;19.090;2023-02-03T03:57:47;97000.47;;;-3.44;83.22
68508;BME280;55510;49.560;19.090;2023-02-03T04:00:56;96995.13;;;-3.42;83.25
68508;BME280;55510;49.560;19.090;2023-02-03T04:04:02;96984.19;;;-3.46;83.89
68508;BME280;55510;49.560;19.090;2023-02-03T04:07:05;96970.63;;;-3.50;83.93
68508;BME280;55510;49.560;19.090;2023-02-03T04:10:31;96963.94;;;-3.52;84.66
68508;BME280;55510;49.560;19.090;2023-02-03T04:13:31;96955.03;;;-3.59;84.96
68508;BME280;55510;49.560;19.090;2023-02-03T04:16:31;96952.31;;;-3.68;84.73
68508;BME280;55510;49.560;19.090;2023-02-03T04:19:32;96948.75;;;-3.67;85.17
68508;BME280;55510;49.560;19.090;2023-02-03T04:22:33;96944.09;;;-3.73;84.36
68508;BME280;55510;49.560;19.090;2023-02-03T04:25:33;96929.56;;;-3.66;84.67
68508;BME280;55510;49.560;19.090;2023-02-03T04:28:34;96927.63;;;-3.54;83.28
68508;BME280;55510;49.560;19.090;2023-02-03T04:31:35;96937.22;;;-3.54;83.83
68508;BME280;55510;49.560;19.090;2023-02-03T04:34:35;96927.50;;;-3.52;84.33
68508;BME280;55510;49.560;19.090;2023-02-03T04:37:36;96937.78;;;-3.60;84.54
68508;BME280;55510;49.560;19.090;2023-02-03T04:40:37;96936.53;;;-3.56;84.51
68508;BME280;55510;49.560;19.090;2023-02-03T04:43:38;96932.56;;;-3.60;84.44
68508;BME280;55510;49.560;19.090;2023-02-03T04:46:38;96910.50;;;-3.56;84.73
68508;BME280;55510;49.560;19.090;2023-02-03T04:49:39;96904.63;;;-3.58;85.21
68508;BME280;55510;49.560;19.090;2023-02-03T04:52:40;96901.06;;;-3.57;84.87
68508;BME280;55510;49.560;19.090;2023-02-03T04:55:40;96907.78;;;-3.55;84.40
68508;BME280;55510;49.560;19.090;2023-02-03T04:58:41;96904.09;;;-3.52;84.19
68508;BME280;55510;49.560;19.090;2023-02-03T05:01:42;96918.31;;;-3.56;84.71
68508;BME280;55510;49.560;19.090;2023-02-03T05:04:42;96912.97;;;-3.55;84.61
68508;BME280;55510;49.560;19.090;2023-02-03T05:07:43;96913.28;;;-3.58;85.05
68508;BME280;55510;49.560;19.090;2023-02-03T05:10:44;96910.78;;;-3.59;85.54
68508;BME280;55510;49.560;19.090;2023-02-03T05:13:45;96904.53;;;-3.67;85.53
68508;BME280;55510;49.560;19.090;2023-02-03T05:16:45;96897.84;;;-3.69;85.96
68508;BME280;55510;49.560;19.090;2023-02-03T05:19:46;96889.19;;;-3.70;86.02
68508;BME280;55510;49.560;19.090;2023-02-03T05:22:47;96893.44;;;-3.79;85.64
68508;BME280;55510;49.560;19.090;2023-02-03T05:25:48;96891.84;;;-3.89;85.98
68508;BME280;55510;49.560;19.090;2023-02-03T05:28:48;96893.34;;;-3.87;86.43
68508;BME280;55510;49.560;19.090;2023-02-03T05:31:49;96882.66;;;-3.84;86.73
68508;BME280;55510;49.560;19.090;2023-02-03T05:34:49;96878.00;;;-3.80;86.86
68508;BME280;55510;49.560;19.090;2023-02-03T05:37:50;96882.81;;;-3.85;87.08
68508;BME280;55510;49.560;19.090;2023-02-03T05:40:52;96874.03;;;-3.84;87.09
68508;BME280;55510;49.560;19.090;2023-02-03T05:44:11;96862.53;;;-3.82;87.01
68508;BME280;55510;49.560;19.090;2023-02-03T05:47:12;96862.69;;;-3.83;86.60
68508;BME280;55510;49.560;19.090;2023-02-03T05:50:12;96856.25;;;-3.89;87.97
68508;BME280;55510;49.560;19.090;2023-02-03T05:53:13;96854.75;;;-3.91;88.04
68508;BME280;55510;49.560;19.090;2023-02-03T05:56:14;96852.84;;;-3.89;88.05
68508;BME280;55510;49.560;19.090;2023-02-03T05:59:14;96848.06;;;-3.94;87.67
68508;BME280;55510;49.560;19.090;2023-02-03T06:02:15;96847.78;;;-4.01;87.93
68508;BME280;55510;49.560;19.090;2023-02-03T06:05:19;96849.28;;;-3.98;87.81
68508;BME280;55510;49.560;19.090;2023-02-03T06:08:21;96836.69;;;-3.93;88.02
68508;BME280;55510;49.560;19.090;2023-02-03T06:11:21;96836.56;;;-3.91;87.82
68508;BME280;55510;49.560;19.090;2023-02-03T06:14:24;96832.16;;;-3.91;87.64
68508;BME280;55510;49.560;19.090;2023-02-03T06:17:24;96821.91;;;-3.92;87.71
68508;BME280;55510;49.560;19.090;2023-02-03T06:20:25;96820.28;;;-3.94;87.50
68508;BME280;55510;49.560;19.090;2023-02-03T06:23:26;96828.09;;;-3.94;87.55
68508;BME280;55510;49.560;19.090;2023-02-03T06:26:26;96820.69;;;-3.88;87.34
68508;BME280;55510;49.560;19.090;2023-02-03T06:29:27;96818.47;;;-3.83;87.69
68508;BME280;55510;49.560;19.090;2023-02-03T06:32:28;96820.09;;;-3.82;87.09
68508;BME280;55510;49.560;19.090;2023-02-03T06:35:28;96815.72;;;-3.82;87.64
68508;BME280;55510;49.560;19.090;2023-02-03T06:38:29;96815.72;;;-3.82;87.28
68508;BME280;55510;49.560;19.090;2023-02-03T06:41:30;96818.47;;;-3.83;87.64
68508;BME280;55510;49.560;19.090;2023-02-03T06:44:32;96812.97;;;-3.80;86.97
68508;BME280;55510;49.560;19.090;2023-02-03T06:47:33;96819.53;;;-3.76;87.00
68508;BME280;55510;49.560;19.090;2023-02-03T06:50:34;96825.81;;;-3.69;86.75
68508;BME280;55510;49.560;19.090;2023-02-03T06:53:35;96824.56;;;-3.65;86.53
68508;BME280;55510;49.560;19.090;2023-02-03T06:56:38;96826.19;;;-3.64;86.60
68508;BME280;55510;49.560;19.090;2023-02-03T06:59:38;96826.88;;;-3.61;86.24
68508;BME280;55510;49.560;19.090;2023-02-03T07:02:39;96821.16;;;-3.65;85.97
68508;BME280;55510;49.560;19.090;2023-02-03T07:05:40;96819.13;;;-3.71;85.65
68508;BME280;55510;49.560;19.090;2023-02-03T07:08:41;96823.34;;;-3.70;86.82
68508;BME280;55510;49.560;19.090;2023-02-03T07:11:41;96820.03;;;-3.62;86.60
68508;BME280;55510;49.560;19.090;2023-02-03T07:14:42;96814.31;;;-3.66;86.33
68508;BME280;55510;49.560;19.090;2023-02-03T07:17:42;96809.88;;;-3.56;86.30
68508;BME280;55510;49.560;19.090;2023-02-03T07:20:43;96798.63;;;-3.56;85.31
68508;BME280;55510;49.560;19.090;2023-02-03T07:23:47;96791.25;;;-3.51;85.37
68508;BME280;55510;49.560;19.090;2023-02-03T07:26:48;96791.63;;;-3.46;84.42
68508;BME280;55510;49.560;19.090;2023-02-03T07:29:49;96796.66;;;-3.44;84.11
68508;BME280;55510;49.560;19.090;2023-02-03T07:32:51;96808.97;;;-3.37;84.21
68508;BME280;55510;49.560;19.090;2023-02-03T07:38:54;96785.72;;;-3.20;82.93
68508;BME280;55510;49.560;19.090;2023-02-03T07:41:54;96790.19;;;-3.12;82.80
68508;BME280;55510;49.560;19.090;2023-02-03T07:44:58;96775.31;;;-3.02;82.34
68508;BME280;55510;49.560;19.090;2023-02-03T07:47:59;96771.28;;;-3.14;82.01
68508;BME280;55510;49.560;19.090;2023-02-03T07:51:00;96765.34;;;-3.25;81.41
68508;BME280;55510;49.560;19.090;2023-02-03T07:54:00;96773.28;;;-3.26;82.46
68508;BME280;55510;49.560;19.090;2023-02-03T07:57:01;96765.75;;;-3.29;82.68
68508;BME280;55510;49.560;19.090;2023-02-03T08:00:03;96766.44;;;-3.27;83.16
68508;BME280;55510;49.560;19.090;2023-02-03T08:03:04;96761.59;;;-3.22;83.10
68508;BME280;55510;49.560;19.090;2023-02-03T08:06:05;96749.25;;;-3.20;82.83
68508;BME280;55510;49.560;19.090;2023-02-03T08:09:06;96741.44;;;-3.20;83.41
68508;BME280;55510;49.560;19.090;2023-02-03T08:12:06;96737.88;;;-3.19;83.24
68508;BME280;55510;49.560;19.090;2023-02-03T08:15:08;96733.44;;;-3.09;82.75
68508;BME280;55510;49.560;19.090;2023-02-03T08:18:08;96732.25;;;-2.96;81.83
68508;BME280;55510;49.560;19.090;2023-02-03T08:21:12;96720.97;;;-2.79;81.67
68508;BME280;55510;49.560;19.090;2023-02-03T08:24:12;96714.56;;;-2.66;81.11
68508;BME280;55510;49.560;19.090;2023-02-03T08:27:16;96716.47;;;-2.50;80.88
68508;BME280;55510;49.560;19.090;2023-02-03T08:30:16;96710.53;;;-2.34;79.40
68508;BME280;55510;49.560;19.090;2023-02-03T08:33:18;96710.59;;;-2.26;78.31
68508;BME280;55510;49.560;19.090;2023-02-03T08:36:20;96710.47;;;-2.16;77.07
68508;BME280;55510;49.560;19.090;2023-02-03T08:39:20;96702.50;;;-2.14;77.40
68508;BME280;55510;49.560;19.090;2023-02-03T08:42:21;96702.88;;;-2.09;76.96
68508;BME280;55510;49.560;19.090;2023-02-03T08:45:22;96704.84;;;-2.03;78.84
68508;BME280;55510;49.560;19.090;2023-02-03T08:48:22;96699.31;;;-2.00;79.49
68508;BME280;55510;49.560;19.090;2023-02-03T08:51:23;96688.56;;;-1.97;79.76
68508;BME280;55510;49.560;19.090;2023-02-03T08:54:24;96687.63;;;-1.87;80.04
68508;BME280;55510;49.560;19.090;2023-02-03T08:57:25;96685.00;;;-1.87;80.69
68508;BME280;55510;49.560;19.090;2023-02-03T09:00:26;96674.47;;;-1.78;81.71
68508;BME280;55510;49.560;19.090;2023-02-03T09:03:27;96668.13;;;-1.75;80.89
68508;BME280;55510;49.560;19.090;2023-02-03T09:06:27;96650.84;;;-1.76;81.29
68508;BME280;55510;49.560;19.090;2023-02-03T09:09:30;96649.69;;;-1.73;81.52
68508;BME280;55510;49.560;19.090;2023-02-03T09:12:31;96647.59;;;-1.70;82.26
68508;BME280;55510;49.560;19.090;2023-02-03T09:15:31;96638.13;;;-1.71;82.04
68508;BME280;55510;49.560;19.090;2023-02-03T09:18:32;96632.25;;;-1.65;81.89
68508;BME280;55510;49.560;19.090;2023-02-03T09:21:33;96620.19;;;-1.57;81.94
68508;BME280;55510;49.560;19.090;2023-02-03T09:24:34;96620.19;;;-1.57;81.84
68508;BME280;55510;49.560;19.090;2023-02-03T09:27:35;96610.41;;;-1.55;81.95
68508;BME280;55510;49.560;19.090;2023-02-03T09:30:35;96605.84;;;-1.53;82.55
68508;BME280;55510;49.560;19.090;2023-02-03T09:33:39;96603.03;;;-1.60;82.35
68508;BME280;55510;49.560;19.090;2023-02-03T09:36:40;96595.06;;;-1.58;82.99
68508;BME280;55510;49.560;19.090;2023-02-03T09:39:41;96594.03;;;-1.82;84.11
68508;BME280;55510;49.560;19.090;2023-02-03T09:43:07;96579.34;;;-1.92;84.47
68508;BME280;55510;49.560;19.090;2023-02-03T09:46:17;96571.66;;;-2.01;85.85
68508;BME280;55510;49.560;19.090;2023-02-03T09:52:40;96559.75;;;-2.12;87.28
68508;BME280;55510;49.560;19.090;2023-02-03T09:55:44;96557.94;;;-2.12;87.98
68508;BME280;55510;49.560;19.090;2023-02-03T09:58:46;96549.81;;;-2.09;88.93
68508;BME280;55510;49.560;19.090;2023-02-03T10:05:03;96532.25;;;-1.98;89.71
68508;BME280;55510;49.560;19.090;2023-02-03T10:15:14;96501.41;;;-1.86;89.93
68508;BME280;55510;49.560;19.090;2023-02-03T10:18:23;96497.50;;;-1.82;90.54
68508;BME280;55510;49.560;19.090;2023-02-03T10:21:42;96491.66;;;-1.76;89.56
68508;BME280;55510;49.560;19.090;2023-02-03T10:24:56;96485.63;;;-1.68;90.71
68508;BME280;55510;49.560;19.090;2023-02-03T10:28:02;96476.16;;;-1.78;91.33
68508;BME280;55510;49.560;19.090;2023-02-03T10:31:18;96462.47;;;-1.80;91.50
68508;BME280;55510;49.560;19.090;2023-02-03T10:34:19;96452.69;;;-1.86;92.00
68508;BME280;55510;49.560;19.090;2023-02-03T10:40:41;96447.97;;;-1.74;92.99
68508;BME280;55510;49.560;19.090;2023-02-03T10:43:42;96449.75;;;-1.75;92.67
68508;BME280;55510;49.560;19.090;2023-02-03T10:46:52;96436.03;;;-1.68;93.04
68508;BME280;55510;49.560;19.090;2023-02-03T10:49:54;96423.31;;;-1.63;93.40
68508;BME280;55510;49.560;19.090;2023-02-03T10:56:27;96406.50;;;-1.52;94.12
68508;BME280;55510;49.560;19.090;2023-02-03T10:59:32;96385.13;;;-1.48;93.87
68508;BME280;55510;49.560;19.090;2023-02-03T11:02:34;96376.94;;;-1.44;94.05
68508;BME280;55510;49.560;19.090;2023-02-03T11:05:34;96384.47;;;-1.50;93.58
68508;BME280;55510;49.560;19.090;2023-02-03T11:08:38;96379.91;;;-1.64;94.40
68508;BME280;55510;49.560;19.090;2023-02-03T11:11:39;96364.78;;;-1.69;96.63
68508;BME280;55510;49.560;19.090;2023-02-03T11:14:49;96360.22;;;-1.67;96.35
68508;BME280;55510;49.560;19.090;2023-02-03T11:17:50;96361.19;;;-1.68;96.75
68508;BME280;55510;49.560;19.090;2023-02-03T11:20:51;96357.94;;;-1.70;97.58
68508;BME280;55510;49.560;19.090;2023-02-03T11:24:20;96340.97;;;-1.66;97.94
68508;BME280;55510;49.560;19.090;2023-02-03T11:27:22;96338.00;;;-1.63;98.88
68508;BME280;55510;49.560;19.090;2023-02-03T11:30:26;96323.66;;;-1.58;98.00
68508;BME280;55510;49.560;19.090;2023-02-03T11:33:29;96308.31;;;-1.62;97.84
68508;BME280;55510;49.560;19.090;2023-02-03T11:36:32;96303.25;;;-1.63;98.24
68508;BME280;55510;49.560;19.090;2023-02-03T11:39:34;96290.44;;;-1.73;99.01
68508;BME280;55510;49.560;19.090;2023-02-03T11:42:40;96286.50;;;-1.69;99.23
68508;BME280;55510;49.560;19.090;2023-02-03T11:45:52;96282.91;;;-1.68;99.63
68508;BME280;55510;49.560;19.090;2023-02-03T11:52:39;96252.19;;;-1.57;100.00
68508;BME280;55510;49.560;19.090;2023-02-03T11:55:49;96246.34;;;-1.59;100.00
68508;BME280;55510;49.560;19.090;2023-02-03T12:12:14;96206.75;;;-1.40;100.00
68508;BME280;55510;49.560;19.090;2023-02-03T12:18:48;96198.69;;;-1.53;100.00
68508;BME280;55510;49.560;19.090;2023-02-03T12:21:55;96182.72;;;-1.58;100.00
68508;BME280;55510;49.560;19.090;2023-02-03T12:25:19;96176.69;;;-1.59;100.00
68508;BME280;55510;49.560;19.090;2023-02-03T12:34:40;96148.38;;;-1.70;100.00
68508;BME280;55510;49.560;19.090;2023-02-03T12:37:54;96144.66;;;-1.76;100.00
68508;BME280;55510;49.560;19.090;2023-02-03T12:41:00;96134.03;;;-1.75;100.00
68508;BME280;55510;49.560;19.090;2023-02-03T12:44:06;96125.56;;;-1.77;100.00
68508;BME280;55510;49.560;19.090;2023-02-03T12:47:20;96106.50;;;-1.77;100.00
68508;BME280;55510;49.560;19.090;2023-02-03T12:50:33;96099.84;;;-1.80;100.00
68508;BME280;55510;49.560;19.090;2023-02-03T12:53:39;96076.41;;;-1.88;100.00
68508;BME280;55510;49.560;19.090;2023-02-03T12:56:42;96065.78;;;-1.86;100.00
68508;BME280;55510;49.560;19.090;2023-02-03T13:06:46;96047.25;;;-1.92;100.00
68508;BME280;55510;49.560;19.090;2023-02-03T13:12:58;96033.97;;;-2.05;100.00
68508;BME280;55510;49.560;19.090;2023-02-03T13:16:05;96030.09;;;-2.09;100.00
68508;BME280;55510;49.560;19.090;2023-02-03T13:19:16;96028.91;;;-2.07;100.00
68508;BME280;55510;49.560;19.090;2023-02-03T13:22:20;96027.28;;;-2.08;100.00
68508;BME280;55510;49.560;19.090;2023-02-03T13:31:55;96008.97;;;-2.23;100.00
68508;BME280;55510;49.560;19.090;2023-02-03T13:35:26;95995.91;;;-2.23;100.00
68508;BME280;55510;49.560;19.090;2023-02-03T13:41:50;95991.06;;;-2.26;100.00
68508;BME280;55510;49.560;19.090;2023-02-03T13:44:57;95974.91;;;-2.21;100.00
68508;BME280;55510;49.560;19.090;2023-02-03T13:48:23;95972.44;;;-2.14;100.00
68508;BME280;55510;49.560;19.090;2023-02-03T13:51:51;95961.94;;;-2.06;100.00
68508;BME280;55510;49.560;19.090;2023-02-03T13:54:51;95958.00;;;-2.02;100.00
68508;BME280;55510;49.560;19.090;2023-02-03T13:57:52;95950.47;;;-1.97;100.00
68508;BME280;55510;49.560;19.090;2023-02-03T14:03:56;95924.94;;;-1.86;100.00
68508;BME280;55510;49.560;19.090;2023-02-03T14:07:00;95917.31;;;-1.88;100.00
68508;BME280;55510;49.560;19.090;2023-02-03T14:13:20;95904.22;;;-2.03;100.00
68508;BME280;55510;49.560;19.090;2023-02-03T14:16:24;95897.03;;;-2.01;100.00
68508;BME280;55510;49.560;19.090;2023-02-03T14:22:29;95876.88;;;-2.07;100.00
68508;BME280;55510;49.560;19.090;2023-02-03T14:25:32;95871.94;;;-2.02;100.00
68508;BME280;55510;49.560;19.090;2023-02-03T14:28:39;95870.13;;;-2.01;100.00
68508;BME280;55510;49.560;19.090;2023-02-03T14:34:56;95870.59;;;-1.98;100.00
68508;BME280;55510;49.560;19.090;2023-02-03T14:38:03;95862.16;;;-2.00;100.00
68508;BME280;55510;49.560;19.090;2023-02-03T14:41:04;95861.03;;;-2.06;100.00
68508;BME280;55510;49.560;19.090;2023-02-03T14:47:18;95856.81;;;-2.07;100.00
68508;BME280;55510;49.560;19.090;2023-02-03T15:03:20;95841.66;;;-1.88;100.00
68508;BME280;55510;49.560;19.090;2023-02-03T15:06:40;95829.63;;;-1.89;100.00
68508;BME280;55510;49.560;19.090;2023-02-03T15:09:44;95819.25;;;-1.82;100.00
68508;BME280;55510;49.560;19.090;2023-02-03T15:12:50;95811.78;;;-1.85;100.00
68508;BME280;55510;49.560;19.090;2023-02-03T15:15:53;95814.41;;;-1.85;100.00
68508;BME280;55510;49.560;19.090;2023-02-03T15:18:57;95798.22;;;-1.81;100.00
68508;BME280;55510;49.560;19.090;2023-02-03T15:21:59;95807.41;;;-1.85;100.00
68508;BME280;55510;49.560;19.090;2023-02-03T15:25:01;95810.44;;;-1.81;100.00
68508;BME280;55510;49.560;19.090;2023-02-03T15:28:11;95804.34;;;-1.73;100.00
68508;BME280;55510;49.560;19.090;2023-02-03T15:31:18;95812.63;;;-1.70;100.00
68508;BME280;55510;49.560;19.090;2023-02-03T15:34:54;95799.84;;;-1.65;100.00
68508;BME280;55510;49.560;19.090;2023-02-03T15:37:52;95804.50;;;-1.60;100.00
68508;BME280;55510;49.560;19.090;2023-02-03T15:40:55;95792.38;;;-1.53;100.00
68508;BME280;55510;49.560;19.090;2023-02-03T15:44:01;95796.22;;;-1.49;100.00
68508;BME280;55510;49.560;19.090;2023-02-03T15:47:19;95791.44;;;-1.45;100.00
68508;BME280;55510;49.560;19.090;2023-02-03T15:53:43;95811.06;;;-1.34;100.00
68508;BME280;55510;49.560;19.090;2023-02-03T15:56:49;95817.34;;;-1.28;100.00
68508;BME280;55510;49.560;19.090;2023-02-03T15:59:58;95825.63;;;-1.25;100.00
68508;BME280;55510;49.560;19.090;2023-02-03T16:03:01;95831.09;;;-1.20;100.00
68508;BME280;55510;49.560;19.090;2023-02-03T16:06:32;95824.34;;;-1.14;100.00
68508;BME280;55510;49.560;19.090;2023-02-03T16:09:39;95840.28;;;-1.09;100.00
68508;BME280;55510;49.560;19.090;2023-02-03T16:12:41;95829.47;;;-1.06;100.00
68508;BME280;55510;49.560;19.090;2023-02-03T16:15:42;95845.94;;;-1.05;100.00
68508;BME280;55510;49.560;19.090;2023-02-03T16:19:03;95862.69;;;-0.99;100.00
68508;BME280;55510;49.560;19.090;2023-02-03T16:22:23;95861.69;;;-0.98;100.00
68508;BME280;55510;49.560;19.090;2023-02-03T16:25:27;95857.03;;;-1.03;100.00
68508;BME280;55510;49.560;19.090;2023-02-03T16:28:28;95830.09;;;-1.04;100.00
68508;BME280;55510;49.560;19.090;2023-02-03T16:31:48;95806.78;;;-1.05;100.00
68508;BME280;55510;49.560;19.090;2023-02-03T16:35:09;95813.16;;;-1.08;100.00
68508;BME280;55510;49.560;19.090;2023-02-03T16:38:28;95803.91;;;-1.10;100.00
68508;BME280;55510;49.560;19.090;2023-02-03T16:41:47;95788.94;;;-1.17;100.00
68508;BME280;55510;49.560;19.090;2023-02-03T16:45:13;95807.06;;;-1.15;100.00
68508;BME280;55510;49.560;19.090;2023-02-03T16:48:32;95815.16;;;-1.10;100.00
68508;BME280;55510;49.560;19.090;2023-02-03T16:51:51;95822.44;;;-1.05;100.00
68508;BME280;55510;49.560;19.090;2023-02-03T16:54:52;95824.50;;;-1.00;100.00
68508;BME280;55510;49.560;19.090;2023-02-03T16:57:53;95811.50;;;-0.94;100.00
68508;BME280;55510;49.560;19.090;2023-02-03T17:00:54;95816.16;;;-0.89;100.00
68508;BME280;55510;49.560;19.090;2023-02-03T17:03:55;95794.91;;;-0.86;100.00
68508;BME280;55510;49.560;19.090;2023-02-03T17:06:55;95821.91;;;-0.79;100.00
68508;BME280;55510;49.560;19.090;2023-02-03T17:09:56;95830.38;;;-0.77;100.00
68508;BME280;55510;49.560;19.090;2023-02-03T17:12:57;95822.78;;;-0.71;100.00
68508;BME280;55510;49.560;19.090;2023-02-03T17:16:00;95816.97;;;-0.67;100.00
68508;BME280;55510;49.560;19.090;2023-02-03T17:19:00;95827.34;;;-0.59;100.00
68508;BME280;55510;49.560;19.090;2023-02-03T17:22:01;95826.50;;;-0.59;100.00
68508;BME280;55510;49.560;19.090;2023-02-03T17:25:02;95823.16;;;-0.53;100.00
68508;BME280;55510;49.560;19.090;2023-02-03T17:28:05;95827.22;;;-0.50;100.00
68508;BME280;55510;49.560;19.090;2023-02-03T17:31:06;95819.38;;;-0.50;100.00
68508;BME280;55510;49.560;19.090;2023-02-03T17:34:07;95820.78;;;-0.48;100.00
68508;BME280;55510;49.560;19.090;2023-02-03T17:37:08;95815.38;;;-0.46;100.00
68508;BME280;55510;49.560;19.090;2023-02-03T17:40:09;95815.00;;;-0.43;100.00
68508;BME280;55510;49.560;19.090;2023-02-03T17:43:09;95820.69;;;-0.39;100.00
68508;BME280;55510;49.560;19.090;2023-02-03T17:46:15;95825.94;;;-0.33;100.00
68508;BME280;55510;49.560;19.090;2023-02-03T17:49:16;95829.31;;;-0.39;100.00
68508;BME280;55510;49.560;19.090;2023-02-03T17:52:17;95834.38;;;-0.37;100.00
68508;BME280;55510;49.560;19.090;2023-02-03T17:55:18;95835.59;;;-0.33;100.00
68508;BME280;55510;49.560;19.090;2023-02-03T17:58:21;95827.16;;;-0.35;100.00
68508;BME280;55510;49.560;19.090;2023-02-03T18:01:22;95812.06;;;-0.33;100.00
68508;BME280;55510;49.560;19.090;2023-02-03T18:04:24;95809.47;;;-0.33;100.00
68508;BME280;55510;49.560;19.090;2023-02-03T18:07:25;95804.59;;;-0.36;100.00
68508;BME280;55510;49.560;19.090;2023-02-03T18:10:26;95805.84;;;-0.32;100.00